sensor_id;sensor_type;location;lat;lon;timestamp;temperature;humidity
7822;DHT22;3956;50.558;9.678;2022-12-24T00:02:28;9.70;1.00
7822;DHT22;3956;50.558;9.678;2022-12-24T00:04:58;9.70;1.00
7822;DHT22;3956;50.558;9.678;2022-12-24T00:07:31;9.60;1.00
7822;DHT22;3956;50.558;9.678;2022-12-24T00:10:03;9.60;1.00
7822;DHT22;3956;50.558;9.678;2022-12-24T00:12:32;9.60;1.00
7822;DHT22;3956;50.558;9.678;2022-12-24T00:15:03;9.60;1.00
7822;DHT22;3956;50.558;9.678;2022-12-24T00:17:32;9.50;1.00
7822;DHT22;3956;50.558;9.678;2022-12-24T00:20:00;9.60;1.00
7822;DHT22;3956;50.558;9.678;2022-12-24T00:22:29;9.50;1.00
7822;DHT22;3956;50.558;9.678;2022-12-24T00:24:58;9.50;1.00
7822;DHT22;3956;50.558;9.678;2022-12-24T00:27:26;9.60;1.00
7822;DHT22;3956;50.558;9.678;2022-12-24T00:29:55;9.60;99.90
7822;DHT22;3956;50.558;9.678;2022-12-24T00:32:24;9.60;1.00
7822;DHT22;3956;50.558;9.678;2022-12-24T00:34:53;9.60;1.00
7822;DHT22;3956;50.558;9.678;2022-12-24T00:37:21;9.60;1.00
7822;DHT22;3956;50.558;9.678;2022-12-24T00:39:50;9.70;1.00
7822;DHT22;3956;50.558;9.678;2022-12-24T00:42:18;9.80;1.00
7822;DHT22;3956;50.558;9.678;2022-12-24T00:44:46;9.70;1.00
7822;DHT22;3956;50.558;9.678;2022-12-24T00:47:15;9.80;1.00
7822;DHT22;3956;50.558;9.678;2022-12-24T00:49:46;9.80;1.00
7822;DHT22;3956;50.558;9.678;2022-12-24T00:52:21;9.80;1.00
7822;DHT22;3956;50.558;9.678;2022-12-24T00:54:49;9.90;1.00
7822;DHT22;3956;50.558;9.678;2022-12-24T00:57:19;9.80;1.00
7822;DHT22;3956;50.558;9.678;2022-12-24T00:59:48;9.80;1.00
7822;DHT22;3956;50.558;9.678;2022-12-24T01:02:16;9.80;1.00
7822;DHT22;3956;50.558;9.678;2022-12-24T01:04:46;9.90;1.00
7822;DHT22;3956;50.558;9.678;2022-12-24T01:07:32;9.80;1.00
7822;DHT22;3956;50.558;9.678;2022-12-24T01:10:01;9.80;1.00
7822;DHT22;3956;50.558;9.678;2022-12-24T01:12:32;9.80;1.00
7822;DHT22;3956;50.558;9.678;2022-12-24T01:15:12;9.80;1.00
7822;DHT22;3956;50.558;9.678;2022-12-24T01:17:42;9.70;1.00
7822;DHT22;3956;50.558;9.678;2022-12-24T01:20:14;9.80;1.00
7822;DHT22;3956;50.558;9.678;2022-12-24T01:22:43;9.70;1.00
7822;DHT22;3956;50.558;9.678;2022-12-24T01:25:13;9.70;1.00
7822;DHT22;3956;50.558;9.678;2022-12-24T01:27:43;9.70;1.00
7822;DHT22;3956;50.558;9.678;2022-12-24T01:30:13;9.70;1.00
7822;DHT22;3956;50.558;9.678;2022-12-24T01:32:44;9.70;1.00
7822;DHT22;3956;50.558;9.678;2022-12-24T01:35:14;9.70;1.00
7822;DHT22;3956;50.558;9.678;2022-12-24T01:37:43;9.70;1.00
7822;DHT22;3956;50.558;9.678;2022-12-24T01:40:14;9.60;1.00
7822;DHT22;3956;50.558;9.678;2022-12-24T01:43:00;9.60;1.00
7822;DHT22;3956;50.558;9.678;2022-12-24T01:45:48;9.70;1.00
7822;DHT22;3956;50.558;9.678;2022-12-24T01:48:30;9.60;1.00
7822;DHT22;3956;50.558;9.678;2022-12-24T01:51:05;9.70;1.00
7822;DHT22;3956;50.558;9.678;2022-12-24T01:53:37;9.70;1.00
7822;DHT22;3956;50.558;9.678;2022-12-24T01:56:06;9.60;1.00
7822;DHT22;3956;50.558;9.678;2022-12-24T01:58:39;9.60;1.00
7822;DHT22;3956;50.558;9.678;2022-12-24T02:01:08;9.50;1.00
7822;DHT22;3956;50.558;9.678;2022-12-24T02:03:37;9.50;1.00
7822;DHT22;3956;50.558;9.678;2022-12-24T02:06:07;9.60;1.00
7822;DHT22;3956;50.558;9.678;2022-12-24T02:08:39;9.70;1.00
7822;DHT22;3956;50.558;9.678;2022-12-24T02:11:13;9.70;1.00
7822;DHT22;3956;50.558;9.678;2022-12-24T02:13:46;9.70;1.00
7822;DHT22;3956;50.558;9.678;2022-12-24T02:16:25;9.70;1.00
7822;DHT22;3956;50.558;9.678;2022-12-24T02:19:14;9.70;1.00
7822;DHT22;3956;50.558;9.678;2022-12-24T02:21:56;9.70;1.00
7822;DHT22;3956;50.558;9.678;2022-12-24T02:24:54;9.60;1.00
7822;DHT22;3956;50.558;9.678;2022-12-24T02:27:41;9.60;1.00
7822;DHT22;3956;50.558;9.678;2022-12-24T02:30:16;9.60;1.00
7822;DHT22;3956;50.558;9.678;2022-12-24T02:33:10;9.70;1.00
7822;DHT22;3956;50.558;9.678;2022-12-24T02:35:46;9.70;1.00
7822;DHT22;3956;50.558;9.678;2022-12-24T02:38:21;9.80;1.00
7822;DHT22;3956;50.558;9.678;2022-12-24T02:40:57;9.80;1.00
7822;DHT22;3956;50.558;9.678;2022-12-24T02:43:37;9.60;1.00
7822;DHT22;3956;50.558;9.678;2022-12-24T02:46:12;9.60;1.00
7822;DHT22;3956;50.558;9.678;2022-12-24T02:48:46;9.40;1.00
7822;DHT22;3956;50.558;9.678;2022-12-24T02:51:21;9.40;1.00
7822;DHT22;3956;50.558;9.678;2022-12-24T02:53:50;9.30;1.00
7822;DHT22;3956;50.558;9.678;2022-12-24T02:56:33;9.30;1.00
7822;DHT22;3956;50.558;9.678;2022-12-24T02:59:32;9.40;1.00
7822;DHT22;3956;50.558;9.678;2022-12-24T03:02:13;9.50;1.00
7822;DHT22;3956;50.558;9.678;2022-12-24T03:04:51;9.40;1.00
7822;DHT22;3956;50.558;9.678;2022-12-24T03:07:28;9.50;1.00
7822;DHT22;3956;50.558;9.678;2022-12-24T03:10:07;9.40;1.00
7822;DHT22;3956;50.558;9.678;2022-12-24T03:12:43;9.50;1.00
7822;DHT22;3956;50.558;9.678;2022-12-24T03:15:24;9.30;1.00
7822;DHT22;3956;50.558;9.678;2022-12-24T03:18:02;9.20;1.00
7822;DHT22;3956;50.558;9.678;2022-12-24T03:20:36;9.10;1.00
7822;DHT22;3956;50.558;9.678;2022-12-24T03:23:07;9.00;1.00
7822;DHT22;3956;50.558;9.678;2022-12-24T03:25:39;9.10;1.00
7822;DHT22;3956;50.558;9.678;2022-12-24T03:28:11;9.10;1.00
7822;DHT22;3956;50.558;9.678;2022-12-24T03:30:41;9.00;1.00
7822;DHT22;3956;50.558;9.678;2022-12-24T03:33:12;9.00;1.00
7822;DHT22;3956;50.558;9.678;2022-12-24T03:35:41;9.00;1.00
7822;DHT22;3956;50.558;9.678;2022-12-24T03:38:09;9.00;1.00
7822;DHT22;3956;50.558;9.678;2022-12-24T03:40:37;8.90;1.00
7822;DHT22;3956;50.558;9.678;2022-12-24T03:43:06;8.80;99.90
7822;DHT22;3956;50.558;9.678;2022-12-24T03:45:34;8.70;99.90
7822;DHT22;3956;50.558;9.678;2022-12-24T03:48:03;8.80;1.00
7822;DHT22;3956;50.558;9.678;2022-12-24T03:50:33;8.90;1.00
7822;DHT22;3956;50.558;9.678;2022-12-24T03:53:01;8.90;1.00
7822;DHT22;3956;50.558;9.678;2022-12-24T03:55:29;8.90;1.00
7822;DHT22;3956;50.558;9.678;2022-12-24T03:57:58;8.90;1.00
7822;DHT22;3956;50.558;9.678;2022-12-24T04:00:26;8.80;1.00
7822;DHT22;3956;50.558;9.678;2022-12-24T04:02:55;8.90;1.00
7822;DHT22;3956;50.558;9.678;2022-12-24T04:05:23;8.80;1.00
7822;DHT22;3956;50.558;9.678;2022-12-24T04:07:56;8.80;1.00
7822;DHT22;3956;50.558;9.678;2022-12-24T04:10:24;8.60;1.00
7822;DHT22;3956;50.558;9.678;2022-12-24T04:12:53;8.50;99.90
7822;DHT22;3956;50.558;9.678;2022-12-24T04:15:21;8.10;1.00
7822;DHT22;3956;50.558;9.678;2022-12-24T04:17:49;7.90;1.00
7822;DHT22;3956;50.558;9.678;2022-12-24T04:20:18;7.80;1.00
7822;DHT22;3956;50.558;9.678;2022-12-24T04:22:46;7.80;1.00
7822;DHT22;3956;50.558;9.678;2022-12-24T04:25:16;7.90;99.90
7822;DHT22;3956;50.558;9.678;2022-12-24T04:27:44;7.90;1.00
7822;DHT22;3956;50.558;9.678;2022-12-24T04:30:13;8.00;99.90
7822;DHT22;3956;50.558;9.678;2022-12-24T04:32:41;8.10;1.00
7822;DHT22;3956;50.558;9.678;2022-12-24T04:35:09;8.20;1.00
7822;DHT22;3956;50.558;9.678;2022-12-24T04:37:38;8.20;1.00
7822;DHT22;3956;50.558;9.678;2022-12-24T04:40:07;8.20;1.00
7822;DHT22;3956;50.558;9.678;2022-12-24T04:42:40;8.30;1.00
7822;DHT22;3956;50.558;9.678;2022-12-24T04:45:09;8.40;1.00
7822;DHT22;3956;50.558;9.678;2022-12-24T04:47:39;8.40;1.00
7822;DHT22;3956;50.558;9.678;2022-12-24T04:50:14;8.50;1.00
7822;DHT22;3956;50.558;9.678;2022-12-24T04:52:52;8.50;1.00
7822;DHT22;3956;50.558;9.678;2022-12-24T04:55:35;8.60;1.00
7822;DHT22;3956;50.558;9.678;2022-12-24T04:58:10;8.70;1.00
7822;DHT22;3956;50.558;9.678;2022-12-24T05:00:39;8.70;1.00
7822;DHT22;3956;50.558;9.678;2022-12-24T05:03:08;8.80;1.00
7822;DHT22;3956;50.558;9.678;2022-12-24T05:05:36;8.90;1.00
7822;DHT22;3956;50.558;9.678;2022-12-24T05:08:04;9.00;1.00
7822;DHT22;3956;50.558;9.678;2022-12-24T05:10:33;9.00;1.00
7822;DHT22;3956;50.558;9.678;2022-12-24T05:13:01;9.10;1.00
7822;DHT22;3956;50.558;9.678;2022-12-24T05:15:31;9.00;1.00
7822;DHT22;3956;50.558;9.678;2022-12-24T05:17:59;9.00;1.00
7822;DHT22;3956;50.558;9.678;2022-12-24T05:20:28;9.00;1.00
7822;DHT22;3956;50.558;9.678;2022-12-24T05:22:56;9.10;1.00
7822;DHT22;3956;50.558;9.678;2022-12-24T05:25:42;9.10;1.00
7822;DHT22;3956;50.558;9.678;2022-12-24T05:28:28;9.10;1.00
7822;DHT22;3956;50.558;9.678;2022-12-24T05:30:57;9.10;1.00
7822;DHT22;3956;50.558;9.678;2022-12-24T05:33:26;9.00;1.00
7822;DHT22;3956;50.558;9.678;2022-12-24T05:35:54;9.00;1.00
7822;DHT22;3956;50.558;9.678;2022-12-24T05:38:23;9.00;1.00
7822;DHT22;3956;50.558;9.678;2022-12-24T05:40:51;9.00;1.00
7822;DHT22;3956;50.558;9.678;2022-12-24T05:43:19;9.00;1.00
7822;DHT22;3956;50.558;9.678;2022-12-24T05:45:48;9.00;1.00
7822;DHT22;3956;50.558;9.678;2022-12-24T05:48:17;8.90;1.00
7822;DHT22;3956;50.558;9.678;2022-12-24T05:50:46;8.50;1.00
7822;DHT22;3956;50.558;9.678;2022-12-24T05:53:15;8.30;99.90
7822;DHT22;3956;50.558;9.678;2022-12-24T05:55:43;8.20;1.00
7822;DHT22;3956;50.558;9.678;2022-12-24T05:58:11;8.20;1.00
7822;DHT22;3956;50.558;9.678;2022-12-24T06:00:39;8.10;1.00
7822;DHT22;3956;50.558;9.678;2022-12-24T06:03:08;8.10;1.00
7822;DHT22;3956;50.558;9.678;2022-12-24T06:05:38;8.10;1.00
7822;DHT22;3956;50.558;9.678;2022-12-24T06:08:07;8.00;1.00
7822;DHT22;3956;50.558;9.678;2022-12-24T06:10:35;8.00;1.00
7822;DHT22;3956;50.558;9.678;2022-12-24T06:13:03;8.10;99.90
7822;DHT22;3956;50.558;9.678;2022-12-24T06:15:32;8.10;99.90
7822;DHT22;3956;50.558;9.678;2022-12-24T06:18:04;8.10;85.00
7822;DHT22;3956;50.558;9.678;2022-12-24T06:20:32;8.10;2.70
7822;DHT22;3956;50.558;9.678;2022-12-24T06:23:02;8.10;21.50
7822;DHT22;3956;50.558;9.678;2022-12-24T06:25:30;8.00;42.10
7822;DHT22;3956;50.558;9.678;2022-12-24T06:27:58;8.00;1.00
7822;DHT22;3956;50.558;9.678;2022-12-24T06:30:27;8.00;31.00
7822;DHT22;3956;50.558;9.678;2022-12-24T06:32:55;8.00;1.00
7822;DHT22;3956;50.558;9.678;2022-12-24T06:35:24;8.00;99.90
7822;DHT22;3956;50.558;9.678;2022-12-24T06:37:52;7.90;99.90
7822;DHT22;3956;50.558;9.678;2022-12-24T06:40:22;8.00;99.90
7822;DHT22;3956;50.558;9.678;2022-12-24T06:42:50;7.90;1.00
7822;DHT22;3956;50.558;9.678;2022-12-24T06:45:19;7.90;1.00
7822;DHT22;3956;50.558;9.678;2022-12-24T06:47:47;7.90;1.00
7822;DHT22;3956;50.558;9.678;2022-12-24T06:50:15;7.90;99.90
7822;DHT22;3956;50.558;9.678;2022-12-24T06:52:44;7.90;99.90
7822;DHT22;3956;50.558;9.678;2022-12-24T06:55:13;7.90;99.90
7822;DHT22;3956;50.558;9.678;2022-12-24T06:57:43;7.90;99.90
7822;DHT22;3956;50.558;9.678;2022-12-24T07:00:12;7.90;99.90
7822;DHT22;3956;50.558;9.678;2022-12-24T07:02:44;7.90;99.90
7822;DHT22;3956;50.558;9.678;2022-12-24T07:05:19;7.90;99.90
7822;DHT22;3956;50.558;9.678;2022-12-24T07:07:47;8.00;99.90
7822;DHT22;3956;50.558;9.678;2022-12-24T07:10:17;7.90;99.90
7822;DHT22;3956;50.558;9.678;2022-12-24T07:12:47;7.90;1.00
7822;DHT22;3956;50.558;9.678;2022-12-24T07:15:16;7.90;99.90
7822;DHT22;3956;50.558;9.678;2022-12-24T07:17:44;7.80;1.00
7822;DHT22;3956;50.558;9.678;2022-12-24T07:20:13;7.80;43.20
7822;DHT22;3956;50.558;9.678;2022-12-24T07:22:45;7.80;99.90
7822;DHT22;3956;50.558;9.678;2022-12-24T07:25:14;7.80;1.00
7822;DHT22;3956;50.558;9.678;2022-12-24T07:27:42;7.60;1.00
7822;DHT22;3956;50.558;9.678;2022-12-24T07:30:12;7.60;1.00
7822;DHT22;3956;50.558;9.678;2022-12-24T07:32:41;7.60;33.90
7822;DHT22;3956;50.558;9.678;2022-12-24T07:35:10;7.70;99.90
7822;DHT22;3956;50.558;9.678;2022-12-24T07:37:41;7.70;99.90
7822;DHT22;3956;50.558;9.678;2022-12-24T07:40:09;7.70;99.90
7822;DHT22;3956;50.558;9.678;2022-12-24T07:42:38;7.70;99.90
7822;DHT22;3956;50.558;9.678;2022-12-24T07:45:07;7.80;99.90
7822;DHT22;3956;50.558;9.678;2022-12-24T07:47:37;7.70;99.90
7822;DHT22;3956;50.558;9.678;2022-12-24T07:50:06;7.80;99.90
7822;DHT22;3956;50.558;9.678;2022-12-24T07:52:35;7.80;99.90
7822;DHT22;3956;50.558;9.678;2022-12-24T07:55:05;7.90;99.90
7822;DHT22;3956;50.558;9.678;2022-12-24T07:57:33;7.90;99.90
7822;DHT22;3956;50.558;9.678;2022-12-24T08:00:02;7.90;99.90
7822;DHT22;3956;50.558;9.678;2022-12-24T08:02:31;8.00;99.90
7822;DHT22;3956;50.558;9.678;2022-12-24T08:05:01;8.00;99.90
7822;DHT22;3956;50.558;9.678;2022-12-24T08:07:29;8.00;99.90
7822;DHT22;3956;50.558;9.678;2022-12-24T08:10:00;8.00;99.90
7822;DHT22;3956;50.558;9.678;2022-12-24T08:12:28;7.90;99.90
7822;DHT22;3956;50.558;9.678;2022-12-24T08:14:56;7.90;99.90
7822;DHT22;3956;50.558;9.678;2022-12-24T08:17:25;7.90;99.90
7822;DHT22;3956;50.558;9.678;2022-12-24T08:19:58;7.90;99.90
7822;DHT22;3956;50.558;9.678;2022-12-24T08:22:28;8.00;99.90
7822;DHT22;3956;50.558;9.678;2022-12-24T08:24:56;7.90;99.90
7822;DHT22;3956;50.558;9.678;2022-12-24T08:27:24;7.90;99.90
7822;DHT22;3956;50.558;9.678;2022-12-24T08:29:55;8.00;99.90
7822;DHT22;3956;50.558;9.678;2022-12-24T08:32:24;7.90;99.90
7822;DHT22;3956;50.558;9.678;2022-12-24T08:34:52;8.00;99.90
7822;DHT22;3956;50.558;9.678;2022-12-24T08:37:23;8.00;99.90
7822;DHT22;3956;50.558;9.678;2022-12-24T08:39:53;8.00;1.00
7822;DHT22;3956;50.558;9.678;2022-12-24T08:42:21;7.90;99.90
7822;DHT22;3956;50.558;9.678;2022-12-24T08:44:50;7.90;1.00
7822;DHT22;3956;50.558;9.678;2022-12-24T08:47:18;8.00;99.90
7822;DHT22;3956;50.558;9.678;2022-12-24T08:49:46;8.00;1.00
7822;DHT22;3956;50.558;9.678;2022-12-24T08:52:15;8.10;1.00
7822;DHT22;3956;50.558;9.678;2022-12-24T08:54:44;8.20;99.90
7822;DHT22;3956;50.558;9.678;2022-12-24T08:57:13;8.10;99.90
7822;DHT22;3956;50.558;9.678;2022-12-24T08:59:42;8.30;1.00
7822;DHT22;3956;50.558;9.678;2022-12-24T09:02:13;8.20;1.00
7822;DHT22;3956;50.558;9.678;2022-12-24T09:04:49;8.10;76.80
7822;DHT22;3956;50.558;9.678;2022-12-24T09:07:20;8.20;1.00
7822;DHT22;3956;50.558;9.678;2022-12-24T09:09:51;8.20;1.00
7822;DHT22;3956;50.558;9.678;2022-12-24T09:12:28;8.30;1.00
7822;DHT22;3956;50.558;9.678;2022-12-24T09:14:58;8.20;99.90
7822;DHT22;3956;50.558;9.678;2022-12-24T09:17:30;8.20;1.00
7822;DHT22;3956;50.558;9.678;2022-12-24T09:19:59;8.20;1.00
7822;DHT22;3956;50.558;9.678;2022-12-24T09:22:30;8.30;1.00
7822;DHT22;3956;50.558;9.678;2022-12-24T09:25:07;8.30;1.00
7822;DHT22;3956;50.558;9.678;2022-12-24T09:27:37;8.40;99.90
7822;DHT22;3956;50.558;9.678;2022-12-24T09:30:08;8.50;99.90
7822;DHT22;3956;50.558;9.678;2022-12-24T09:32:39;8.50;57.60
7822;DHT22;3956;50.558;9.678;2022-12-24T09:35:08;8.50;1.00
7822;DHT22;3956;50.558;9.678;2022-12-24T09:37:38;8.50;1.00
7822;DHT22;3956;50.558;9.678;2022-12-24T09:40:18;8.50;5.10
7822;DHT22;3956;50.558;9.678;2022-12-24T09:42:52;8.40;1.00
7822;DHT22;3956;50.558;9.678;2022-12-24T09:45:25;8.40;1.00
7822;DHT22;3956;50.558;9.678;2022-12-24T09:48:00;8.40;1.00
7822;DHT22;3956;50.558;9.678;2022-12-24T09:50:33;8.40;1.00
7822;DHT22;3956;50.558;9.678;2022-12-24T09:53:11;8.50;1.00
7822;DHT22;3956;50.558;9.678;2022-12-24T09:55:57;8.50;1.00
7822;DHT22;3956;50.558;9.678;2022-12-24T09:58:30;8.50;1.00
7822;DHT22;3956;50.558;9.678;2022-12-24T10:01:12;8.50;1.00
7822;DHT22;3956;50.558;9.678;2022-12-24T10:03:43;8.50;1.00
7822;DHT22;3956;50.558;9.678;2022-12-24T10:06:22;8.60;1.00
7822;DHT22;3956;50.558;9.678;2022-12-24T10:09:09;8.60;1.00
7822;DHT22;3956;50.558;9.678;2022-12-24T10:11:51;8.70;1.00
7822;DHT22;3956;50.558;9.678;2022-12-24T10:14:41;8.60;99.90
7822;DHT22;3956;50.558;9.678;2022-12-24T10:17:24;8.40;99.90
7822;DHT22;3956;50.558;9.678;2022-12-24T10:20:17;8.50;99.90
7822;DHT22;3956;50.558;9.678;2022-12-24T10:22:55;8.50;90.60
7822;DHT22;3956;50.558;9.678;2022-12-24T10:25:30;8.70;14.70
7822;DHT22;3956;50.558;9.678;2022-12-24T10:28:04;8.70;1.00
7822;DHT22;3956;50.558;9.678;2022-12-24T10:30:44;8.70;1.00
7822;DHT22;3956;50.558;9.678;2022-12-24T10:33:25;8.80;1.00
7822;DHT22;3956;50.558;9.678;2022-12-24T10:35:59;8.80;1.00
7822;DHT22;3956;50.558;9.678;2022-12-24T10:38:39;8.80;1.00
7822;DHT22;3956;50.558;9.678;2022-12-24T10:41:16;8.80;1.00
7822;DHT22;3956;50.558;9.678;2022-12-24T10:43:52;8.90;1.00
7822;DHT22;3956;50.558;9.678;2022-12-24T10:46:30;9.00;1.00
7822;DHT22;3956;50.558;9.678;2022-12-24T10:49:04;9.00;1.00
7822;DHT22;3956;50.558;9.678;2022-12-24T10:51:38;9.00;1.00
7822;DHT22;3956;50.558;9.678;2022-12-24T10:54:24;9.00;1.00
7822;DHT22;3956;50.558;9.678;2022-12-24T10:57:30;9.10;1.00
7822;DHT22;3956;50.558;9.678;2022-12-24T11:00:20;9.10;1.00
7822;DHT22;3956;50.558;9.678;2022-12-24T11:03:22;9.20;1.00
7822;DHT22;3956;50.558;9.678;2022-12-24T11:06:07;9.10;1.00
7822;DHT22;3956;50.558;9.678;2022-12-24T11:08:40;9.20;1.00
7822;DHT22;3956;50.558;9.678;2022-12-24T11:11:11;9.20;1.00
7822;DHT22;3956;50.558;9.678;2022-12-24T11:13:44;9.20;1.00
7822;DHT22;3956;50.558;9.678;2022-12-24T11:16:20;9.30;1.00
7822;DHT22;3956;50.558;9.678;2022-12-24T11:18:52;9.30;1.00
7822;DHT22;3956;50.558;9.678;2022-12-24T11:21:24;9.30;1.00
7822;DHT22;3956;50.558;9.678;2022-12-24T11:23:56;9.40;1.00
7822;DHT22;3956;50.558;9.678;2022-12-24T11:26:34;9.50;1.00
7822;DHT22;3956;50.558;9.678;2022-12-24T11:29:14;9.60;1.00
7822;DHT22;3956;50.558;9.678;2022-12-24T11:31:45;9.60;1.00
7822;DHT22;3956;50.558;9.678;2022-12-24T11:34:30;9.60;1.00
7822;DHT22;3956;50.558;9.678;2022-12-24T11:37:13;9.60;1.00
7822;DHT22;3956;50.558;9.678;2022-12-24T11:39:49;9.60;1.00
7822;DHT22;3956;50.558;9.678;2022-12-24T11:42:28;9.80;1.00
7822;DHT22;3956;50.558;9.678;2022-12-24T11:45:00;9.90;1.00
7822;DHT22;3956;50.558;9.678;2022-12-24T11:47:35;9.90;1.00
7822;DHT22;3956;50.558;9.678;2022-12-24T11:50:25;9.80;1.00
7822;DHT22;3956;50.558;9.678;2022-12-24T11:53:04;9.80;1.00
7822;DHT22;3956;50.558;9.678;2022-12-24T11:55:41;9.80;1.00
7822;DHT22;3956;50.558;9.678;2022-12-24T11:58:18;9.80;1.00
7822;DHT22;3956;50.558;9.678;2022-12-24T12:00:50;9.90;1.00
7822;DHT22;3956;50.558;9.678;2022-12-24T12:03:33;9.90;1.00
7822;DHT22;3956;50.558;9.678;2022-12-24T12:06:13;9.90;1.00
7822;DHT22;3956;50.558;9.678;2022-12-24T12:08:44;9.70;1.00
7822;DHT22;3956;50.558;9.678;2022-12-24T12:11:14;9.70;1.00
7822;DHT22;3956;50.558;9.678;2022-12-24T12:13:46;9.70;1.00
7822;DHT22;3956;50.558;9.678;2022-12-24T12:16:31;9.60;1.00
7822;DHT22;3956;50.558;9.678;2022-12-24T12:19:37;9.40;1.00
7822;DHT22;3956;50.558;9.678;2022-12-24T12:22:20;9.30;1.00
7822;DHT22;3956;50.558;9.678;2022-12-24T12:24:51;9.30;1.00
7822;DHT22;3956;50.558;9.678;2022-12-24T12:27:27;9.30;1.00
7822;DHT22;3956;50.558;9.678;2022-12-24T12:30:01;9.30;1.00
7822;DHT22;3956;50.558;9.678;2022-12-24T12:32:40;9.30;1.00
7822;DHT22;3956;50.558;9.678;2022-12-24T12:35:17;9.40;1.00
7822;DHT22;3956;50.558;9.678;2022-12-24T12:37:54;9.60;1.00
7822;DHT22;3956;50.558;9.678;2022-12-24T12:40:45;9.90;1.00
7822;DHT22;3956;50.558;9.678;2022-12-24T12:43:36;10.00;1.00
7822;DHT22;3956;50.558;9.678;2022-12-24T12:46:17;10.00;1.00
7822;DHT22;3956;50.558;9.678;2022-12-24T12:49:09;10.10;1.00
7822;DHT22;3956;50.558;9.678;2022-12-24T12:51:46;10.10;1.00
7822;DHT22;3956;50.558;9.678;2022-12-24T12:54:31;10.00;1.00
7822;DHT22;3956;50.558;9.678;2022-12-24T12:57:05;10.00;1.00
7822;DHT22;3956;50.558;9.678;2022-12-24T12:59:39;10.10;1.00
7822;DHT22;3956;50.558;9.678;2022-12-24T13:02:25;10.10;1.00
7822;DHT22;3956;50.558;9.678;2022-12-24T13:05:26;10.00;1.00
7822;DHT22;3956;50.558;9.678;2022-12-24T13:08:16;9.90;1.00
7822;DHT22;3956;50.558;9.678;2022-12-24T13:11:04;9.90;1.00
7822;DHT22;3956;50.558;9.678;2022-12-24T13:14:00;9.80;1.00
7822;DHT22;3956;50.558;9.678;2022-12-24T13:20:07;9.90;1.00
7822;DHT22;3956;50.558;9.678;2022-12-24T13:22:38;9.80;1.00
7822;DHT22;3956;50.558;9.678;2022-12-24T13:25:21;9.90;1.00
7822;DHT22;3956;50.558;9.678;2022-12-24T13:28:15;9.90;1.00
7822;DHT22;3956;50.558;9.678;2022-12-24T13:30:45;10.00;1.00
7822;DHT22;3956;50.558;9.678;2022-12-24T13:33:48;10.00;1.00
7822;DHT22;3956;50.558;9.678;2022-12-24T13:36:24;10.00;1.00
7822;DHT22;3956;50.558;9.678;2022-12-24T13:39:00;10.00;1.00
7822;DHT22;3956;50.558;9.678;2022-12-24T13:41:49;10.00;1.00
7822;DHT22;3956;50.558;9.678;2022-12-24T13:44:26;10.00;1.00
7822;DHT22;3956;50.558;9.678;2022-12-24T13:47:19;10.00;1.00
7822;DHT22;3956;50.558;9.678;2022-12-24T13:50:21;9.90;1.00
7822;DHT22;3956;50.558;9.678;2022-12-24T13:52:57;9.70;1.00
7822;DHT22;3956;50.558;9.678;2022-12-24T13:55:54;9.60;1.00
7822;DHT22;3956;50.558;9.678;2022-12-24T13:58:25;9.70;1.00
7822;DHT22;3956;50.558;9.678;2022-12-24T14:00:57;9.60;1.00
7822;DHT22;3956;50.558;9.678;2022-12-24T14:03:29;9.50;1.00
7822;DHT22;3956;50.558;9.678;2022-12-24T14:06:00;9.50;1.00
7822;DHT22;3956;50.558;9.678;2022-12-24T14:08:35;9.50;1.00
7822;DHT22;3956;50.558;9.678;2022-12-24T14:11:15;9.40;1.00
7822;DHT22;3956;50.558;9.678;2022-12-24T14:16:47;9.40;1.00
7822;DHT22;3956;50.558;9.678;2022-12-24T14:19:20;9.40;1.00
7822;DHT22;3956;50.558;9.678;2022-12-24T14:21:58;9.40;1.00
7822;DHT22;3956;50.558;9.678;2022-12-24T14:24:36;9.40;1.00
7822;DHT22;3956;50.558;9.678;2022-12-24T14:27:15;9.40;1.00
7822;DHT22;3956;50.558;9.678;2022-12-24T14:29:49;9.40;1.00
7822;DHT22;3956;50.558;9.678;2022-12-24T14:32:19;9.40;1.00
7822;DHT22;3956;50.558;9.678;2022-12-24T14:35:04;9.30;1.00
7822;DHT22;3956;50.558;9.678;2022-12-24T14:37:33;9.30;1.00
7822;DHT22;3956;50.558;9.678;2022-12-24T14:40:04;9.40;1.00
7822;DHT22;3956;50.558;9.678;2022-12-24T14:42:40;9.40;1.00
7822;DHT22;3956;50.558;9.678;2022-12-24T14:45:25;9.30;1.00
7822;DHT22;3956;50.558;9.678;2022-12-24T14:48:04;9.40;1.00
7822;DHT22;3956;50.558;9.678;2022-12-24T14:51:00;9.40;1.00
7822;DHT22;3956;50.558;9.678;2022-12-24T14:53:46;9.40;1.00
7822;DHT22;3956;50.558;9.678;2022-12-24T14:56:23;9.40;1.00
7822;DHT22;3956;50.558;9.678;2022-12-24T14:58:52;9.40;1.00
7822;DHT22;3956;50.558;9.678;2022-12-24T15:01:25;9.40;1.00
7822;DHT22;3956;50.558;9.678;2022-12-24T15:04:04;9.40;1.00
7822;DHT22;3956;50.558;9.678;2022-12-24T15:06:44;9.40;1.00
7822;DHT22;3956;50.558;9.678;2022-12-24T15:09:22;9.40;1.00
7822;DHT22;3956;50.558;9.678;2022-12-24T15:12:01;9.50;1.00
7822;DHT22;3956;50.558;9.678;2022-12-24T15:14:42;9.40;1.00
7822;DHT22;3956;50.558;9.678;2022-12-24T15:17:16;9.50;1.00
7822;DHT22;3956;50.558;9.678;2022-12-24T15:19:56;9.40;1.00
7822;DHT22;3956;50.558;9.678;2022-12-24T15:22:30;9.40;1.00
7822;DHT22;3956;50.558;9.678;2022-12-24T15:24:59;9.40;1.00
7822;DHT22;3956;50.558;9.678;2022-12-24T15:27:32;9.40;1.00
7822;DHT22;3956;50.558;9.678;2022-12-24T15:30:16;9.30;1.00
7822;DHT22;3956;50.558;9.678;2022-12-24T15:32:56;9.30;1.00
7822;DHT22;3956;50.558;9.678;2022-12-24T15:35:51;9.30;1.00
7822;DHT22;3956;50.558;9.678;2022-12-24T15:38:29;9.30;1.00
7822;DHT22;3956;50.558;9.678;2022-12-24T15:41:00;9.20;1.00
7822;DHT22;3956;50.558;9.678;2022-12-24T15:43:32;9.20;1.00
7822;DHT22;3956;50.558;9.678;2022-12-24T15:46:01;9.20;1.00
7822;DHT22;3956;50.558;9.678;2022-12-24T15:48:30;9.30;1.00
7822;DHT22;3956;50.558;9.678;2022-12-24T15:51:01;9.30;1.00
7822;DHT22;3956;50.558;9.678;2022-12-24T15:53:33;9.30;1.00
7822;DHT22;3956;50.558;9.678;2022-12-24T15:56:06;9.30;1.00
7822;DHT22;3956;50.558;9.678;2022-12-24T15:58:40;9.20;1.00
7822;DHT22;3956;50.558;9.678;2022-12-24T16:01:26;8.90;99.90
7822;DHT22;3956;50.558;9.678;2022-12-24T16:03:57;8.60;1.00
7822;DHT22;3956;50.558;9.678;2022-12-24T16:06:51;8.60;1.00
7822;DHT22;3956;50.558;9.678;2022-12-24T16:09:41;8.60;1.00
7822;DHT22;3956;50.558;9.678;2022-12-24T16:12:19;8.70;1.00
7822;DHT22;3956;50.558;9.678;2022-12-24T16:14:54;8.60;1.00
7822;DHT22;3956;50.558;9.678;2022-12-24T16:17:26;8.50;1.00
7822;DHT22;3956;50.558;9.678;2022-12-24T16:20:05;8.50;99.90
7822;DHT22;3956;50.558;9.678;2022-12-24T16:22:37;8.60;99.90
7822;DHT22;3956;50.558;9.678;2022-12-24T16:25:22;8.60;1.00
7822;DHT22;3956;50.558;9.678;2022-12-24T16:27:55;8.60;1.00
7822;DHT22;3956;50.558;9.678;2022-12-24T16:30:27;8.60;1.00
7822;DHT22;3956;50.558;9.678;2022-12-24T16:32:55;8.70;1.00
7822;DHT22;3956;50.558;9.678;2022-12-24T16:35:26;8.60;1.00
7822;DHT22;3956;50.558;9.678;2022-12-24T16:38:05;8.70;99.90
7822;DHT22;3956;50.558;9.678;2022-12-24T16:40:36;8.70;1.00
7822;DHT22;3956;50.558;9.678;2022-12-24T16:43:07;8.80;1.00
7822;DHT22;3956;50.558;9.678;2022-12-24T16:45:59;8.70;1.00
7822;DHT22;3956;50.558;9.678;2022-12-24T16:48:28;8.60;1.00
7822;DHT22;3956;50.558;9.678;2022-12-24T16:50:56;8.70;5.40
7822;DHT22;3956;50.558;9.678;2022-12-24T16:53:27;8.70;99.90
7822;DHT22;3956;50.558;9.678;2022-12-24T16:55:56;8.70;99.90
7822;DHT22;3956;50.558;9.678;2022-12-24T16:58:25;8.60;1.00
7822;DHT22;3956;50.558;9.678;2022-12-24T17:00:54;8.80;99.90
7822;DHT22;3956;50.558;9.678;2022-12-24T17:03:25;8.90;99.90
7822;DHT22;3956;50.558;9.678;2022-12-24T17:05:59;8.80;99.90
7822;DHT22;3956;50.558;9.678;2022-12-24T17:08:35;8.90;99.90
7822;DHT22;3956;50.558;9.678;2022-12-24T17:11:03;8.70;99.90
7822;DHT22;3956;50.558;9.678;2022-12-24T17:13:32;8.60;99.90
7822;DHT22;3956;50.558;9.678;2022-12-24T17:16:00;8.60;99.90
7822;DHT22;3956;50.558;9.678;2022-12-24T17:18:30;8.40;99.90
7822;DHT22;3956;50.558;9.678;2022-12-24T17:20:59;8.40;99.90
7822;DHT22;3956;50.558;9.678;2022-12-24T17:23:29;8.40;99.90